Time;durP1;ratioP1;P1;durP2;ratioP2;P2;SDS_P1;SDS_P2;PMS_P1;PMS_P2;Temp;Humidity;BMP_temperature;BMP_pressure;BME280_temperature;BME280_humidity;BME280_pressure;Samples;Min_cycle;Max_cycle;Signal;HPM_P1;HPM_P2
2023/06/19 00:02:03;;;;;;;;;;;26.70;48.90;;;;;;20917347;28;19987;-60
2023/06/19 00:12:04;;;;;;;;;;;26.60;49.60;;;;;;20915052;28;19975;-60
2023/06/19 00:22:05;;;;;;;;;;;26.30;50.10;;;;;;20915528;28;20386;-59
2023/06/19 00:32:06;;;;;;;;;;;26.10;50.40;;;;;;20914279;28;19931;-61
2023/06/19 00:42:06;;;;;;;;;;;26.00;50.30;;;;;;20915005;28;20317;-61
2023/06/19 00:52:07;;;;;;;;;;;26.00;50.60;;;;;;20914233;28;19925;-59
2023/06/19 01:02:08;;;;;;;;;;;25.90;50.80;;;;;;20913630;28;19925;-59
2023/06/19 01:12:12;;;;;;;;;;;26.00;52.10;;;;;;20913479;28;20265;-60
2023/06/19 01:22:22;;;;;;;;;;;25.70;55.90;;;;;;20925880;28;19932;-60
2023/06/19 01:32:30;;;;;;;;;;;25.60;57.60;;;;;;20928963;28;20381;-61
2023/06/19 01:42:32;;;;;;;;;;;25.30;60.30;;;;;;20926733;28;19978;-59
2023/06/19 01:52:32;;;;;;;;;;;24.80;61.70;;;;;;20927485;28;19971;-60
2023/06/19 02:02:33;;;;;;;;;;;24.60;63.30;;;;;;20926464;28;20363;-59
2023/06/19 02:12:34;;;;;;;;;;;24.30;66.60;;;;;;20925293;28;19979;-59
2023/06/19 02:22:35;;;;;;;;;;;24.10;68.10;;;;;;20923268;28;20062;-59
2023/06/19 02:32:35;;;;;;;;;;;24.00;68.50;;;;;;20923766;28;20012;-59
2023/06/19 02:42:36;;;;;;;;;;;23.90;67.30;;;;;;20921992;28;19983;-59
2023/06/19 02:52:36;;;;;;;;;;;23.80;69.00;;;;;;20922618;28;19924;-60
2023/06/19 03:02:41;;;;;;;;;;;23.80;68.90;;;;;;20920392;28;20019;-59
2023/06/19 03:12:42;;;;;;;;;;;23.70;67.40;;;;;;20920964;28;19924;-60
2023/06/19 03:22:42;;;;;;;;;;;23.70;67.30;;;;;;20920083;28;19925;-60
2023/06/19 03:32:43;;;;;;;;;;;23.60;68.60;;;;;;20919858;28;19971;-60
2023/06/19 03:42:44;;;;;;;;;;;23.50;69.90;;;;;;20918434;28;19925;-59
2023/06/19 03:52:44;;;;;;;;;;;23.40;70.40;;;;;;20916948;28;19925;-60
2023/06/19 04:02:48;;;;;;;;;;;23.30;70.40;;;;;;20916138;28;20470;-59
2023/06/19 04:12:48;;;;;;;;;;;23.20;70.30;;;;;;20916398;28;19925;-59
2023/06/19 04:22:49;;;;;;;;;;;23.20;69.80;;;;;;20915494;28;19925;-59
2023/06/19 04:32:49;;;;;;;;;;;23.10;69.10;;;;;;20915104;28;19925;-59
2023/06/19 04:42:53;;;;;;;;;;;22.80;70.20;;;;;;20914041;28;20022;-59
2023/06/19 04:52:54;;;;;;;;;;;22.70;70.60;;;;;;20913085;28;19928;-60
2023/06/19 05:02:59;;;;;;;;;;;22.60;69.80;;;;;;20911303;28;20255;-60
2023/06/19 05:13:00;;;;;;;;;;;22.60;69.60;;;;;;20913144;28;19932;-60
2023/06/19 05:23:00;;;;;;;;;;;22.50;70.40;;;;;;20911275;28;19924;-61
2023/06/19 05:33:01;;;;;;;;;;;22.50;71.20;;;;;;20910812;28;19931;-60
2023/06/19 05:43:02;;;;;;;;;;;22.50;70.70;;;;;;20910072;28;19979;-60
2023/06/19 05:53:02;;;;;;;;;;;22.50;69.40;;;;;;20909967;28;19983;-60
2023/06/19 06:03:03;;;;;;;;;;;22.60;68.80;;;;;;20915184;28;20406;-60
2023/06/19 06:13:04;;;;;;;;;;;22.70;68.50;;;;;;20925134;28;19990;-60
2023/06/19 06:23:04;;;;;;;;;;;22.90;66.80;;;;;;20924944;28;20350;-61
2023/06/19 06:33:05;;;;;;;;;;;23.10;65.90;;;;;;20924133;28;19925;-61
2023/06/19 06:43:05;;;;;;;;;;;23.00;67.80;;;;;;20923334;28;20397;-60
2023/06/19 06:53:06;;;;;;;;;;;23.00;67.70;;;;;;20921306;28;19972;-59
2023/06/19 07:03:07;;;;;;;;;;;23.10;67.10;;;;;;20920279;28;20297;-59
2023/06/19 07:13:07;;;;;;;;;;;23.20;67.30;;;;;;20919347;28;19967;-60
2023/06/19 07:23:09;;;;;;;;;;;23.00;67.80;;;;;;20919116;28;20290;-59
2023/06/19 07:33:09;;;;;;;;;;;22.90;68.80;;;;;;20919500;28;20371;-59
2023/06/19 07:43:10;;;;;;;;;;;22.90;68.60;;;;;;20918553;28;19968;-59
2023/06/19 07:53:11;;;;;;;;;;;22.80;73.20;;;;;;20917007;28;19925;-59
2023/06/19 08:03:11;;;;;;;;;;;22.80;71.30;;;;;;20915845;28;19925;-60
2023/06/19 08:13:12;;;;;;;;;;;23.00;69.00;;;;;;20915290;28;20385;-60
2023/06/19 08:23:13;;;;;;;;;;;23.20;69.30;;;;;;20915270;28;19924;-61
2023/06/19 08:33:14;;;;;;;;;;;23.60;64.40;;;;;;20914161;28;19929;-57
2023/06/19 08:43:14;;;;;;;;;;;23.40;66.20;;;;;;20914392;28;19928;-60
2023/06/19 08:53:15;;;;;;;;;;;23.50;66.50;;;;;;20914449;28;19975;-57
2023/06/19 09:03:22;;;;;;;;;;;23.80;64.80;;;;;;20911826;28;19976;-58
2023/06/19 09:13:22;;;;;;;;;;;23.70;64.40;;;;;;20913191;28;19956;-59
2023/06/19 09:23:23;;;;;;;;;;;23.80;66.80;;;;;;20912382;28;19932;-60
2023/06/19 09:33:29;;;;;;;;;;;23.90;64.00;;;;;;20911015;28;19929;-60
2023/06/19 09:43:42;;;;;;;;;;;24.00;62.90;;;;;;20923003;28;19925;-60
2023/06/19 09:53:44;;;;;;;;;;;24.40;62.30;;;;;;20926400;28;19925;-59
2023/06/19 10:03:45;;;;;;;;;;;24.50;61.60;;;;;;20925538;28;20399;-60
2023/06/19 10:13:45;;;;;;;;;;;24.80;58.70;;;;;;20924879;28;19976;-59
2023/06/19 10:23:56;;;;;;;;;;;25.10;56.00;;;;;;20924145;28;19975;-58
2023/06/19 10:33:57;;;;;;;;;;;25.50;50.70;;;;;;20922953;28;19928;-59
2023/06/19 10:44:12;;;;;;;;;;;25.60;52.90;;;;;;20922931;28;19929;-59
2023/06/19 10:54:12;;;;;;;;;;;25.60;52.00;;;;;;20920708;28;19936;-58
2023/06/19 11:04:14;;;;;;;;;;;26.00;50.40;;;;;;20920521;28;20031;-59
2023/06/19 11:14:16;;;;;;;;;;;26.30;49.40;;;;;;20918957;28;19924;-59
2023/06/19 11:24:17;;;;;;;;;;;26.40;48.50;;;;;;20918899;28;20388;-58
2023/06/19 11:34:17;;;;;;;;;;;26.60;47.90;;;;;;20918843;28;20235;-59
2023/06/19 11:44:18;;;;;;;;;;;26.90;48.30;;;;;;20917693;28;19976;-59
2023/06/19 11:54:20;;;;;;;;;;;27.00;47.30;;;;;;20916889;28;20011;-60
2023/06/19 12:04:21;;;;;;;;;;;27.30;44.70;;;;;;20915603;28;20335;-58
2023/06/19 12:14:21;;;;;;;;;;;27.40;45.00;;;;;;20914792;28;19960;-58
2023/06/19 12:24:22;;;;;;;;;;;27.80;41.50;;;;;;20914031;28;19964;-59
2023/06/19 12:34:24;;;;;;;;;;;28.00;41.20;;;;;;20913980;28;19982;-59
2023/06/19 12:44:25;;;;;;;;;;;28.60;40.00;;;;;;20912816;28;20004;-58
2023/06/19 12:54:25;;;;;;;;;;;28.40;40.70;;;;;;20912467;28;19932;-58
2023/06/19 13:04:26;;;;;;;;;;;28.70;38.90;;;;;;20911933;28;19931;-58
2023/06/19 13:14:27;;;;;;;;;;;28.90;38.50;;;;;;20920195;28;19929;-59
2023/06/19 13:24:27;;;;;;;;;;;28.90;39.20;;;;;;20928031;28;19925;-58
2023/06/19 13:34:28;;;;;;;;;;;29.20;37.40;;;;;;20927455;28;20301;-59
2023/06/19 13:44:29;;;;;;;;;;;29.60;36.20;;;;;;20927237;28;19947;-59
2023/06/19 13:54:29;;;;;;;;;;;29.80;36.30;;;;;;20927196;28;20386;-58
2023/06/19 14:04:30;;;;;;;;;;;30.00;36.00;;;;;;20926275;28;20012;-58
2023/06/19 14:14:30;;;;;;;;;;;30.40;34.70;;;;;;20925824;28;19924;-59
2023/06/19 14:24:31;;;;;;;;;;;30.50;34.60;;;;;;20924220;28;19924;-58
2023/06/19 14:34:32;;;;;;;;;;;30.40;34.50;;;;;;20924259;28;19973;-58
2023/06/19 14:44:33;;;;;;;;;;;30.60;34.50;;;;;;20923076;28;19971;-60
2023/06/19 14:54:33;;;;;;;;;;;30.60;32.70;;;;;;20920492;28;20386;-58
2023/06/19 15:04:34;;;;;;;;;;;30.60;34.60;;;;;;20921488;28;20005;-58
2023/06/19 15:14:37;;;;;;;;;;;30.60;34.70;;;;;;20921119;28;20023;-58
2023/06/19 15:24:38;;;;;;;;;;;30.60;34.60;;;;;;20918849;28;20359;-58
2023/06/19 15:34:40;;;;;;;;;;;30.60;34.20;;;;;;20918097;28;19924;-58
2023/06/19 15:44:41;;;;;;;;;;;30.60;34.40;;;;;;20918272;28;19932;-58
2023/06/19 15:54:42;;;;;;;;;;;30.70;34.40;;;;;;20916358;28;19925;-58
2023/06/19 16:04:42;;;;;;;;;;;30.70;34.50;;;;;;20915150;28;19924;-61
2023/06/19 16:14:43;;;;;;;;;;;30.80;34.80;;;;;;20915194;28;20356;-60
2023/06/19 16:24:43;;;;;;;;;;;30.70;34.20;;;;;;20914533;28;19928;-61
2023/06/19 16:34:44;;;;;;;;;;;30.90;33.40;;;;;;20913105;28;19983;-60
2023/06/19 16:44:45;;;;;;;;;;;30.80;32.90;;;;;;20907400;28;20017;-58
2023/06/19 16:54:45;;;;;;;;;;;30.50;33.10;;;;;;20887143;28;19967;-62
2023/06/19 17:04:46;;;;;;;;;;;30.60;32.60;;;;;;20903265;28;20007;-62
2023/06/19 17:14:46;;;;;;;;;;;30.60;32.30;;;;;;20875832;28;20015;-59
2023/06/19 17:24:47;;;;;;;;;;;30.50;32.30;;;;;;20909354;28;20008;-59
2023/06/19 17:34:47;;;;;;;;;;;30.50;32.30;;;;;;20911953;28;20331;-59
2023/06/19 17:44:48;;;;;;;;;;;30.50;31.80;;;;;;20908876;28;20014;-62
2023/06/19 17:54:50;;;;;;;;;;;30.30;32.20;;;;;;20898444;28;20011;-60
2023/06/19 18:04:51;;;;;;;;;;;30.10;32.10;;;;;;20912857;28;20319;-63
2023/06/19 18:14:52;;;;;;;;;;;29.30;39.20;;;;;;20921294;28;19931;-60
2023/06/19 18:24:52;;;;;;;;;;;29.10;37.20;;;;;;20920567;28;19968;-63
2023/06/19 18:34:54;;;;;;;;;;;29.20;36.90;;;;;;20920475;28;19932;-59
2023/06/19 18:44:54;;;;;;;;;;;29.10;38.60;;;;;;20916191;28;20404;-59
2023/06/19 18:54:55;;;;;;;;;;;28.20;41.80;;;;;;20920106;28;19925;-60
2023/06/19 19:04:55;;;;;;;;;;;28.00;41.10;;;;;;20918948;28;19925;-59
2023/06/19 19:14:56;;;;;;;;;;;28.00;41.70;;;;;;20917120;28;19924;-59
2023/06/19 19:24:57;;;;;;;;;;;28.00;44.20;;;;;;20887140;28;19979;-59
2023/06/19 19:34:58;;;;;;;;;;;27.90;43.00;;;;;;20900236;28;19925;-59
2023/06/19 19:44:59;;;;;;;;;;;27.70;42.70;;;;;;20842605;28;19932;-58
2023/06/19 19:54:59;;;;;;;;;;;27.50;42.70;;;;;;20831784;28;19925;-57
2023/06/19 20:05:00;;;;;;;;;;;27.60;42.50;;;;;;20831418;28;19925;-56
2023/06/19 20:15:03;;;;;;;;;;;27.60;41.70;;;;;;20831478;28;19925;-56
2023/06/19 20:25:05;;;;;;;;;;;27.60;41.30;;;;;;20763542;28;1915295;-58
2023/06/19 20:35:06;;;;;;;;;;;27.50;41.20;;;;;;20831257;28;19936;-57
2023/06/19 20:45:06;;;;;;;;;;;27.30;41.00;;;;;;20831055;28;19932;-57
2023/06/19 20:55:07;;;;;;;;;;;27.30;41.20;;;;;;20830984;28;19925;-57
2023/06/19 21:05:11;;;;;;;;;;;27.10;41.30;;;;;;20830848;28;19933;-57
2023/06/19 21:15:11;;;;;;;;;;;27.20;41.10;;;;;;20830582;28;20016;-56
2023/06/19 21:25:12;;;;;;;;;;;27.20;41.30;;;;;;20829621;28;19984;-58
2023/06/19 21:35:13;;;;;;;;;;;27.20;41.40;;;;;;20836582;28;19932;-57
2023/06/19 21:45:13;;;;;;;;;;;27.30;41.70;;;;;;20845620;28;19925;-56
2023/06/19 21:55:14;;;;;;;;;;;27.10;41.20;;;;;;20845018;28;19929;-58
2023/06/19 22:05:14;;;;;;;;;;;27.10;40.80;;;;;;20842728;28;19929;-58
2023/06/19 22:15:15;;;;;;;;;;;26.90;40.40;;;;;;20842392;28;19995;-56
2023/06/19 22:25:16;;;;;;;;;;;26.70;40.80;;;;;;20841359;28;20026;-56
2023/06/19 22:35:16;;;;;;;;;;;26.80;40.40;;;;;;20842194;28;20437;-58
2023/06/19 22:45:18;;;;;;;;;;;26.70;40.10;;;;;;20841253;28;19948;-56
2023/06/19 22:55:20;;;;;;;;;;;26.60;40.00;;;;;;20840683;28;19925;-57
2023/06/19 23:05:21;;;;;;;;;;;26.60;39.90;;;;;;20840161;28;20378;-57
2023/06/19 23:15:22;;;;;;;;;;;26.60;40.20;;;;;;20839917;28;19947;-57
2023/06/19 23:25:25;;;;;;;;;;;26.60;40.20;;;;;;20838677;28;20003;-58
2023/06/19 23:35:26;;;;;;;;;;;26.50;40.50;;;;;;20837711;28;19925;-56
2023/06/19 23:45:27;;;;;;;;;;;26.40;41.00;;;;;;20836954;28;19925;-57
2023/06/19 23:55:27;;;;;;;;;;;26.40;41.40;;;;;;20835876;28;19925;-57
